Time;durP1;ratioP1;P1;durP2;ratioP2;P2;SDS_P1;SDS_P2;PMS_P1;PMS_P2;Temp;Humidity;BMP_temperature;BMP_pressure;BME280_temperature;BME280_humidity;BME280_pressure;Samples;Min_cycle;Max_cycle;Signal;HPM_P1;HPM_P2
2024/03/19 00:00:34;;;;;;;8.40;4.10;;;13.20;69.30;;;;;;5090558;28;20248;-82
2024/03/19 00:02:59;;;;;;;10.37;4.40;;;13.20;67.70;;;;;;5090144;28;20276;-84
2024/03/19 00:05:25;;;;;;;11.20;3.97;;;13.10;69.00;;;;;;5089691;28;20632;-88
2024/03/19 00:07:51;;;;;;;12.27;4.27;;;13.00;71.50;;;;;;5090374;28;20274;-85
2024/03/19 00:10:17;;;;;;;9.53;4.07;;;13.00;73.40;;;;;;5092154;28;20190;-86
2024/03/19 00:12:43;;;;;;;8.90;3.90;;;12.90;73.40;;;;;;5092493;28;20224;-85
2024/03/19 00:15:09;;;;;;;11.50;4.50;;;13.00;74.10;;;;;;5091218;28;20199;-85
2024/03/19 00:17:36;;;;;;;8.03;3.80;;;12.80;77.10;;;;;;5089205;28;20611;-86
2024/03/19 00:20:05;;;;;;;9.37;4.40;;;12.60;81.40;;;;;;5086107;28;20224;-85
2024/03/19 00:22:34;;;;;;;9.43;4.23;;;12.70;83.50;;;;;;5086274;28;20216;-85
2024/03/19 00:25:00;;;;;;;9.83;4.00;;;12.90;77.30;;;;;;5087925;28;20182;-84
2024/03/19 00:27:25;;;;;;;10.50;4.00;;;12.90;77.20;;;;;;5085791;28;20186;-86
2024/03/19 00:29:52;;;;;;;7.70;4.20;;;12.90;76.10;;;;;;5087424;28;20221;-86
2024/03/19 00:32:18;;;;;;;7.33;4.00;;;13.00;72.60;;;;;;5093505;28;20295;-84
2024/03/19 00:34:43;;;;;;;9.23;4.07;;;12.90;75.20;;;;;;5093680;28;20178;-85
2024/03/19 00:37:09;;;;;;;13.60;4.50;;;12.80;76.60;;;;;;5093503;28;20668;-85
2024/03/19 00:39:35;;;;;;;11.87;4.20;;;12.70;78.80;;;;;;5092978;28;20180;-85
2024/03/19 00:42:04;;;;;;;10.10;4.20;;;12.60;83.30;;;;;;5093043;28;20640;-85
2024/03/19 00:44:30;;;;;;;13.07;4.30;;;12.50;89.80;;;;;;5093784;28;20185;-84
2024/03/19 00:46:57;;;;;;;9.47;4.27;;;12.40;90.40;;;;;;5093519;28;20232;-84
2024/03/19 00:49:23;;;;;;;12.23;4.63;;;12.40;91.10;;;;;;5093129;28;20172;-84
2024/03/19 00:51:49;;;;;;;10.33;4.17;;;12.30;92.60;;;;;;5092528;28;20582;-85
2024/03/19 00:54:14;;;;;;;7.47;4.13;;;12.30;94.00;;;;;;5091900;28;20642;-85
2024/03/19 00:56:40;;;;;;;12.20;4.27;;;12.30;94.40;;;;;;5093388;28;20268;-84
2024/03/19 00:59:06;;;;;;;9.07;4.70;;;12.30;95.00;;;;;;5093807;28;20166;-84
2024/03/19 01:01:32;;;;;;;8.80;4.33;;;12.30;95.00;;;;;;5097573;28;20205;-85
2024/03/19 01:04:04;;;;;;;10.43;4.33;;;12.40;94.20;;;;;;5093387;28;20222;-84
2024/03/19 01:06:31;;;;;;;7.73;4.33;;;12.50;92.90;;;;;;5113934;28;20615;-85
2024/03/19 01:08:57;;;;;;;9.27;4.50;;;12.50;92.30;;;;;;5113234;28;20240;-85
2024/03/19 01:11:23;;;;;;;10.77;4.87;;;12.50;92.30;;;;;;5114680;28;20164;-83
2024/03/19 01:13:49;;;;;;;9.53;3.87;;;12.50;92.50;;;;;;5112767;28;20200;-84
2024/03/19 01:16:15;;;;;;;7.93;3.93;;;12.40;92.70;;;;;;5095535;28;20185;-84
2024/03/19 01:18:40;;;;;;;9.87;4.43;;;12.40;93.50;;;;;;5092729;28;20206;-85
2024/03/19 01:21:06;;;;;;;10.67;3.87;;;12.50;92.90;;;;;;5092097;28;20180;-85
2024/03/19 01:23:32;;;;;;;9.07;4.40;;;12.70;87.50;;;;;;5092987;28;20188;-84
2024/03/19 01:25:58;;;;;;;15.07;4.57;;;12.80;83.40;;;;;;5092063;28;20173;-84
2024/03/19 01:28:23;;;;;;;8.77;4.77;;;12.60;87.60;;;;;;5091049;28;20178;-85
2024/03/19 01:30:49;;;;;;;8.23;4.67;;;12.60;90.40;;;;;;5092823;28;20579;-85
2024/03/19 01:33:15;;;;;;;9.53;4.37;;;12.60;88.00;;;;;;5092657;28;20258;-84
2024/03/19 01:35:41;;;;;;;10.00;4.57;;;12.50;89.60;;;;;;5091301;28;20713;-85
2024/03/19 01:38:07;;;;;;;10.70;4.67;;;12.50;91.00;;;;;;5092079;28;20271;-85
2024/03/19 01:40:33;;;;;;;13.57;4.83;;;12.50;91.30;;;;;;5092680;28;20208;-86
2024/03/19 01:42:59;;;;;;;11.90;4.50;;;12.40;92.10;;;;;;5091256;28;20668;-85
2024/03/19 01:45:25;;;;;;;9.70;4.03;;;12.40;92.50;;;;;;5092440;28;20175;-84
2024/03/19 01:47:51;;;;;;;12.83;5.00;;;12.30;93.90;;;;;;5091655;28;20236;-85
2024/03/19 01:50:17;;;;;;;11.33;5.43;;;12.30;94.80;;;;;;5092624;28;20211;-85
2024/03/19 01:52:45;;;;;;;9.13;5.00;;;12.30;94.30;;;;;;5091901;28;20177;-86
2024/03/19 01:55:11;;;;;;;10.17;3.80;;;12.40;93.80;;;;;;5092058;28;20239;-85
2024/03/19 01:57:37;;;;;;;12.60;4.40;;;12.30;94.70;;;;;;5091824;28;20165;-85
2024/03/19 02:00:04;;;;;;;7.30;4.40;;;12.20;95.30;;;;;;5094839;28;20204;-84
2024/03/19 02:02:32;;;;;;;11.07;4.23;;;12.20;95.90;;;;;;5093863;28;20221;-86
2024/03/19 02:04:59;;;;;;;9.27;4.13;;;12.20;95.40;;;;;;5091558;28;20169;-85
2024/03/19 02:07:25;;;;;;;11.83;4.50;;;12.20;95.40;;;;;;5092255;28;20654;-84
2024/03/19 02:09:51;;;;;;;10.50;4.70;;;12.20;95.60;;;;;;5092620;28;20203;-85
2024/03/19 02:12:19;;;;;;;10.00;4.27;;;12.30;95.40;;;;;;5092237;28;20200;-84
2024/03/19 02:14:45;;;;;;;11.37;4.40;;;12.40;93.30;;;;;;5091921;28;20194;-86
2024/03/19 02:17:12;;;;;;;11.17;4.20;;;12.50;90.70;;;;;;5091135;28;20184;-85
2024/03/19 02:19:38;;;;;;;11.23;4.00;;;12.40;91.20;;;;;;5089032;28;20164;-84
2024/03/19 02:22:05;;;;;;;11.50;4.77;;;12.50;90.40;;;;;;5091489;28;20243;-84
2024/03/19 02:24:31;;;;;;;9.43;4.37;;;12.50;90.90;;;;;;5092135;28;20689;-84
2024/03/19 02:26:57;;;;;;;11.93;4.73;;;12.40;92.70;;;;;;5092088;28;20222;-85
2024/03/19 02:29:23;;;;;;;11.30;4.60;;;12.40;93.70;;;;;;5091560;28;20168;-84
2024/03/19 02:31:49;;;;;;;10.63;4.53;;;12.30;94.50;;;;;;5089893;28;20187;-84
2024/03/19 02:34:14;;;;;;;11.17;4.00;;;12.30;95.30;;;;;;5089701;28;20231;-85
2024/03/19 02:36:40;;;;;;;9.00;4.10;;;12.40;95.10;;;;;;5089767;28;20597;-85
2024/03/19 02:39:07;;;;;;;9.90;4.13;;;12.40;94.90;;;;;;5090093;28;20614;-85
2024/03/19 02:41:32;;;;;;;10.63;4.67;;;12.40;95.10;;;;;;5090784;28;20203;-84
2024/03/19 02:43:58;;;;;;;10.27;4.70;;;12.40;95.00;;;;;;5091779;28;20226;-84
2024/03/19 02:46:24;;;;;;;8.63;4.67;;;12.50;94.60;;;;;;5090862;28;20182;-83
2024/03/19 02:48:50;;;;;;;9.37;4.17;;;12.40;94.50;;;;;;5092824;28;20182;-85
2024/03/19 02:51:15;;;;;;;7.93;4.30;;;12.40;95.30;;;;;;5090637;28;20684;-85
2024/03/19 02:53:41;;;;;;;10.17;4.13;;;12.40;95.30;;;;;;5090783;28;20208;-85
2024/03/19 02:56:07;;;;;;;10.43;4.13;;;12.50;95.30;;;;;;5090692;28;20636;-85
2024/03/19 02:58:34;;;;;;;10.57;4.30;;;12.70;94.60;;;;;;5089884;28;20178;-84
2024/03/19 03:00:59;;;;;;;9.77;4.20;;;12.80;93.00;;;;;;5090547;28;20181;-85
2024/03/19 03:03:25;;;;;;;12.20;4.40;;;12.90;91.80;;;;;;5089828;28;20213;-85
2024/03/19 03:05:52;;;;;;;12.93;4.40;;;12.80;90.90;;;;;;5089985;28;20198;-84
2024/03/19 03:08:18;;;;;;;9.27;4.67;;;12.90;89.80;;;;;;5092228;28;20236;-85
2024/03/19 03:10:43;;;;;;;11.80;4.50;;;13.10;84.10;;;;;;5091353;28;20177;-84
2024/03/19 03:13:09;;;;;;;8.30;4.00;;;13.10;79.40;;;;;;5091164;28;20578;-85
2024/03/19 03:15:35;;;;;;;12.73;4.77;;;13.10;75.60;;;;;;5090474;28;20234;-85
2024/03/19 03:18:01;;;;;;;9.63;4.70;;;13.10;73.70;;;;;;5089763;28;20295;-85
2024/03/19 03:20:26;;;;;;;10.27;4.60;;;13.10;77.10;;;;;;5090899;28;20284;-84
2024/03/19 03:22:52;;;;;;;12.63;4.50;;;13.00;77.10;;;;;;5091172;28;20257;-84
2024/03/19 03:25:18;;;;;;;9.60;4.53;;;13.10;75.30;;;;;;5090832;28;20183;-84
2024/03/19 03:27:44;;;;;;;12.03;4.53;;;13.00;77.20;;;;;;5090048;28;20173;-84
2024/03/19 03:30:12;;;;;;;11.67;4.50;;;12.80;83.70;;;;;;5090756;28;20181;-85
2024/03/19 03:32:40;;;;;;;9.53;4.43;;;12.70;90.20;;;;;;5090799;28;20164;-85
2024/03/19 03:35:07;;;;;;;7.00;3.87;;;12.80;91.00;;;;;;5090148;28;20179;-83
2024/03/19 03:37:34;;;;;;;7.47;3.93;;;12.90;90.20;;;;;;5092175;28;20583;-84
2024/03/19 03:40:00;;;;;;;10.10;4.27;;;12.80;90.70;;;;;;5090110;28;20164;-84
2024/03/19 03:42:26;;;;;;;9.70;4.43;;;12.80;91.90;;;;;;5089912;28;20220;-85
2024/03/19 03:44:52;;;;;;;9.03;4.10;;;12.70;92.30;;;;;;5093450;28;20184;-85
2024/03/19 03:47:18;;;;;;;12.27;4.63;;;12.60;93.20;;;;;;5093885;28;20170;-84
2024/03/19 03:49:45;;;;;;;8.10;4.30;;;12.70;93.50;;;;;;5094382;28;20184;-85
2024/03/19 03:52:11;;;;;;;10.07;4.40;;;12.70;93.50;;;;;;5094595;28;20212;-84
2024/03/19 03:54:37;;;;;;;10.50;4.40;;;12.80;93.90;;;;;;5094777;28;20194;-84
2024/03/19 03:57:03;;;;;;;9.53;4.27;;;12.90;92.80;;;;;;5095192;28;20179;-85
2024/03/19 03:59:29;;;;;;;10.83;4.30;;;12.90;91.90;;;;;;5094882;28;20169;-84
2024/03/19 04:01:54;;;;;;;7.83;4.07;;;13.00;91.20;;;;;;5094659;28;20209;-86
2024/03/19 04:04:20;;;;;;;12.10;5.10;;;13.10;88.40;;;;;;5093293;28;20535;-85
2024/03/19 04:06:48;;;;;;;6.97;4.40;;;13.20;86.30;;;;;;5093499;28;20589;-86
2024/03/19 04:09:15;;;;;;;10.53;4.67;;;13.20;85.50;;;;;;5094497;28;20205;-84
2024/03/19 04:11:41;;;;;;;12.87;4.97;;;13.30;84.40;;;;;;5093975;28;20202;-84
2024/03/19 04:14:07;;;;;;;10.57;4.03;;;13.40;79.10;;;;;;5094631;28;20198;-84
2024/03/19 04:16:33;;;;;;;10.60;4.40;;;13.40;76.60;;;;;;5094612;28;20257;-85
2024/03/19 04:18:58;;;;;;;9.17;4.03;;;13.30;77.70;;;;;;5094438;28;20546;-85
2024/03/19 04:21:25;;;;;;;10.80;4.20;;;13.30;80.30;;;;;;5093274;28;20663;-84
2024/03/19 04:23:51;;;;;;;11.67;4.50;;;13.30;77.30;;;;;;5093525;28;20179;-84
2024/03/19 04:26:16;;;;;;;11.13;4.10;;;13.20;80.70;;;;;;5092651;28;20239;-85
2024/03/19 04:28:42;;;;;;;10.53;4.70;;;13.10;82.90;;;;;;5095661;28;20273;-85
2024/03/19 04:31:07;;;;;;;9.37;4.20;;;13.10;84.10;;;;;;5094888;28;20205;-85
2024/03/19 04:33:33;;;;;;;11.20;3.83;;;13.10;84.50;;;;;;5094917;28;20649;-84
2024/03/19 04:35:59;;;;;;;12.03;4.10;;;13.30;81.40;;;;;;5093010;28;20612;-84
2024/03/19 04:38:25;;;;;;;9.77;3.67;;;13.40;76.00;;;;;;5093558;28;20176;-84
2024/03/19 04:40:51;;;;;;;12.47;4.13;;;13.40;73.00;;;;;;5092186;28;20185;-85
2024/03/19 04:43:16;;;;;;;9.87;3.80;;;13.50;72.50;;;;;;5092703;28;20206;-85
2024/03/19 04:45:42;;;;;;;8.10;4.07;;;13.50;70.20;;;;;;5092424;28;20624;-85
2024/03/19 04:48:07;;;;;;;9.67;4.20;;;13.60;69.90;;;;;;5093699;28;20626;-84
2024/03/19 04:50:33;;;;;;;10.93;4.30;;;13.60;69.00;;;;;;5092635;28;20225;-85
2024/03/19 04:52:59;;;;;;;11.30;4.30;;;13.70;66.70;;;;;;5093897;28;20182;-85
2024/03/19 04:55:24;;;;;;;8.27;3.67;;;13.60;62.10;;;;;;5094093;28;20171;-84
2024/03/19 04:57:50;;;;;;;7.80;4.03;;;13.60;58.20;;;;;;5093031;28;20661;-84
2024/03/19 05:00:17;;;;;;;11.97;4.10;;;13.30;63.10;;;;;;5094246;28;20190;-85
2024/03/19 05:02:44;;;;;;;10.47;3.80;;;13.20;67.50;;;;;;5093576;28;20268;-85
2024/03/19 05:05:10;;;;;;;9.60;3.40;;;13.20;65.70;;;;;;5093653;28;20301;-84
2024/03/19 05:07:36;;;;;;;9.07;3.53;;;13.20;66.90;;;;;;5093870;28;20266;-83
2024/03/19 05:10:01;;;;;;;10.57;3.97;;;13.30;69.00;;;;;;5092324;28;20181;-84
2024/03/19 05:12:27;;;;;;;9.63;3.77;;;13.30;70.10;;;;;;5091784;28;20687;-85
2024/03/19 05:14:53;;;;;;;11.67;4.00;;;13.30;67.10;;;;;;5092658;28;20221;-84
2024/03/19 05:17:18;;;;;;;13.10;3.80;;;13.40;62.90;;;;;;5088855;28;20178;-83
2024/03/19 05:19:44;;;;;;;7.27;3.70;;;13.40;60.90;;;;;;5073338;28;20175;-85
2024/03/19 05:22:10;;;;;;;10.40;3.83;;;13.40;60.30;;;;;;5073087;28;20216;-85
2024/03/19 05:24:35;;;;;;;11.80;3.87;;;13.40;60.10;;;;;;5072853;28;20172;-85
2024/03/19 05:27:02;;;;;;;9.70;4.17;;;13.40;60.70;;;;;;5072813;28;20170;-84
2024/03/19 05:29:28;;;;;;;9.37;3.70;;;13.40;61.70;;;;;;5073398;28;20163;-85
2024/03/19 05:31:54;;;;;;;8.30;3.77;;;13.40;60.80;;;;;;5074149;28;20249;-85
2024/03/19 05:34:20;;;;;;;7.97;3.73;;;13.40;61.10;;;;;;5074582;28;20211;-84
2024/03/19 05:36:46;;;;;;;9.50;4.07;;;13.40;64.80;;;;;;5073547;28;20205;-85
2024/03/19 05:39:12;;;;;;;11.30;4.27;;;13.50;65.90;;;;;;5086947;28;20205;-85
2024/03/19 05:41:38;;;;;;;11.70;4.67;;;13.50;66.90;;;;;;5093559;28;20269;-83
2024/03/19 05:44:04;;;;;;;12.50;4.50;;;13.50;67.50;;;;;;5092863;28;20211;-83
2024/03/19 05:46:30;;;;;;;8.53;3.97;;;13.60;66.60;;;;;;5091795;28;20237;-83
2024/03/19 05:48:56;;;;;;;10.80;4.33;;;13.60;65.50;;;;;;5094580;28;20172;-84
2024/03/19 05:51:22;;;;;;;12.57;4.03;;;13.70;64.50;;;;;;5094409;28;20604;-85
2024/03/19 05:53:48;;;;;;;9.73;3.70;;;13.70;61.70;;;;;;5092071;28;20215;-85
2024/03/19 05:56:13;;;;;;;10.23;3.80;;;13.70;58.70;;;;;;5091055;28;20180;-85
2024/03/19 05:58:39;;;;;;;11.33;4.53;;;13.70;59.30;;;;;;5092607;28;20657;-85
2024/03/19 06:01:05;;;;;;;11.80;4.27;;;13.60;61.70;;;;;;5091438;28;20179;-85
2024/03/19 06:03:34;;;;;;;11.07;4.00;;;13.60;62.50;;;;;;5091835;28;20226;-86
2024/03/19 06:06:10;;;;;;;12.93;4.77;;;13.50;66.20;;;;;;5075150;28;20253;-84
2024/03/19 06:08:39;;;;;;;13.47;4.20;;;13.50;67.60;;;;;;5071433;28;20179;-84
2024/03/19 06:11:07;;;;;;;9.07;3.93;;;13.50;67.00;;;;;;5072042;28;20206;-84
2024/03/19 06:13:33;;;;;;;8.53;3.47;;;13.40;68.80;;;;;;5071084;28;20176;-84
2024/03/19 06:16:00;;;;;;;10.27;4.37;;;13.40;67.70;;;;;;5071496;28;20176;-85
2024/03/19 06:18:26;;;;;;;9.53;3.30;;;13.20;66.60;;;;;;5072082;28;20486;-85
2024/03/19 06:20:52;;;;;;;7.83;3.37;;;13.20;69.40;;;;;;5071439;28;20637;-85
2024/03/19 06:23:18;;;;;;;9.73;3.63;;;13.30;69.70;;;;;;5069560;28;20236;-86
2024/03/19 06:25:43;;;;;;;8.17;3.20;;;13.50;66.50;;;;;;5071757;28;20163;-87
2024/03/19 06:28:10;;;;;;;8.57;3.30;;;13.50;64.00;;;;;;5072883;28;20173;-86
2024/03/19 06:30:35;;;;;;;10.70;3.60;;;13.60;61.10;;;;;;5071531;28;20280;-84
2024/03/19 06:33:01;;;;;;;11.53;3.80;;;13.70;58.50;;;;;;5072816;28;20175;-84
2024/03/19 06:35:29;;;;;;;8.60;3.47;;;13.70;56.70;;;;;;5070766;28;20187;-87
2024/03/19 06:37:54;;;;;;;7.47;3.57;;;13.60;56.80;;;;;;5071416;28;20179;-85
2024/03/19 06:40:21;;;;;;;10.13;3.43;;;13.50;59.40;;;;;;5091518;28;20178;-85
2024/03/19 06:42:46;;;;;;;8.13;3.30;;;13.60;59.40;;;;;;5090403;28;20218;-85
2024/03/19 06:45:12;;;;;;;10.63;3.83;;;13.60;59.30;;;;;;5090863;28;20191;-87
2024/03/19 06:47:38;;;;;;;10.37;4.00;;;13.60;59.70;;;;;;5088656;28;20203;-87
2024/03/19 06:50:07;;;;;;;9.60;4.47;;;13.40;62.30;;;;;;5089382;28;20227;-84
2024/03/19 06:52:34;;;;;;;10.93;4.10;;;13.40;66.90;;;;;;5089208;28;20167;-83
2024/03/19 06:55:03;;;;;;;8.73;4.10;;;13.50;68.40;;;;;;5090679;28;20628;-85
2024/03/19 06:57:31;;;;;;;10.50;3.63;;;13.60;66.60;;;;;;5089706;28;20551;-84
2024/03/19 06:59:57;;;;;;;11.80;3.50;;;13.60;64.40;;;;;;5088531;28;20263;-84
2024/03/19 07:02:24;;;;;;;13.77;4.23;;;13.50;67.20;;;;;;5089609;28;20362;-84
2024/03/19 07:04:49;;;;;;;9.57;3.30;;;13.50;67.10;;;;;;5086901;28;20201;-86
2024/03/19 07:07:17;;;;;;;8.87;3.17;;;13.40;69.60;;;;;;5086725;28;20650;-83
2024/03/19 07:09:48;;;;;;;14.00;4.17;;;13.50;70.00;;;;;;5084865;28;20191;-84
2024/03/19 07:12:14;;;;;;;11.37;4.27;;;13.60;68.40;;;;;;5087942;28;20612;-85
2024/03/19 07:14:41;;;;;;;10.90;4.13;;;13.80;63.00;;;;;;5089921;28;20192;-86
2024/03/19 07:17:07;;;;;;;11.27;3.87;;;13.90;58.20;;;;;;5089702;28;20175;-83
2024/03/19 07:19:33;;;;;;;9.73;4.13;;;14.00;57.10;;;;;;5092505;28;20616;-82
2024/03/19 07:21:59;;;;;;;12.57;4.23;;;14.20;51.90;;;;;;5094354;28;20247;-83
2024/03/19 07:24:24;;;;;;;10.10;3.70;;;14.20;50.30;;;;;;5094550;28;20232;-86
2024/03/19 07:26:50;;;;;;;8.30;3.57;;;14.10;57.60;;;;;;5095394;28;20215;-86
2024/03/19 07:29:16;;;;;;;10.10;3.97;;;13.80;57.80;;;;;;5094700;28;20171;-84
2024/03/19 07:31:42;;;;;;;10.07;3.87;;;13.70;63.60;;;;;;5094139;28;20616;-85
2024/03/19 07:34:09;;;;;;;14.03;4.17;;;13.70;64.50;;;;;;5094791;28;20239;-84
2024/03/19 07:36:35;;;;;;;8.50;4.17;;;13.80;65.30;;;;;;5086583;28;20175;-86
2024/03/19 07:39:11;;;;;;;8.13;3.90;;;13.90;59.30;;;;;;5083817;28;20275;-85
2024/03/19 07:41:40;;;;;;;10.73;4.03;;;13.90;61.00;;;;;;5084355;28;20637;-85
2024/03/19 07:44:06;;;;;;;9.03;4.17;;;14.00;59.40;;;;;;5083384;28;20228;-86
2024/03/19 07:46:33;;;;;;;9.10;4.47;;;14.00;59.60;;;;;;5085060;28;20179;-86
2024/03/19 07:48:59;;;;;;;12.73;4.33;;;13.90;60.40;;;;;;5084632;28;20184;-86
2024/03/19 07:51:27;;;;;;;10.43;4.77;;;13.80;62.10;;;;;;5077924;28;20175;-87
2024/03/19 07:53:53;;;;;;;9.03;3.87;;;13.80;64.70;;;;;;5075067;28;20641;-86
2024/03/19 07:56:18;;;;;;;9.07;3.83;;;13.80;63.90;;;;;;5075248;28;20188;-86
2024/03/19 07:58:44;;;;;;;9.73;3.90;;;13.90;63.50;;;;;;5076020;28;20177;-85
2024/03/19 08:01:10;;;;;;;9.87;3.87;;;13.80;64.60;;;;;;5073627;28;20172;-87
2024/03/19 08:03:36;;;;;;;9.23;4.00;;;13.80;66.70;;;;;;5074546;28;20745;-86
2024/03/19 08:06:01;;;;;;;9.97;4.47;;;13.90;66.60;;;;;;5074619;28;20263;-86
2024/03/19 08:08:30;;;;;;;9.03;4.30;;;14.00;65.00;;;;;;5074040;28;20172;-86
2024/03/19 08:10:56;;;;;;;11.10;4.10;;;14.20;62.30;;;;;;5074710;28;20195;-87
2024/03/19 08:13:22;;;;;;;8.47;3.93;;;14.40;56.10;;;;;;5074752;28;20172;-86
2024/03/19 08:15:48;;;;;;;11.63;3.63;;;14.30;54.10;;;;;;5074674;28;20628;-87
2024/03/19 08:18:15;;;;;;;12.47;4.30;;;14.30;55.20;;;;;;5074801;28;20175;-85
2024/03/19 08:20:40;;;;;;;11.67;4.10;;;14.10;56.30;;;;;;5075147;28;20227;-87
2024/03/19 08:23:06;;;;;;;8.90;4.00;;;14.30;56.90;;;;;;5075651;28;20242;-86
2024/03/19 08:25:33;;;;;;;10.13;3.47;;;14.30;55.60;;;;;;5075013;28;20640;-86
2024/03/19 08:27:59;;;;;;;8.87;3.83;;;14.30;54.90;;;;;;5075178;28;20176;-87
2024/03/19 08:30:25;;;;;;;8.87;3.70;;;14.30;55.20;;;;;;5074981;28;20679;-86
2024/03/19 08:32:53;;;;;;;8.70;3.40;;;14.40;54.60;;;;;;5074433;28;20186;-87
2024/03/19 08:35:20;;;;;;;12.93;4.43;;;14.50;52.90;;;;;;5075689;28;20179;-87
2024/03/19 08:37:48;;;;;;;8.87;3.67;;;14.50;51.40;;;;;;5074363;28;20604;-87
2024/03/19 08:40:15;;;;;;;11.27;3.57;;;14.50;52.20;;;;;;5073985;28;20177;-87
2024/03/19 08:42:40;;;;;;;8.73;4.00;;;14.50;51.00;;;;;;5074291;28;20220;-86
2024/03/19 08:45:12;;;;;;;12.37;3.70;;;14.70;48.20;;;;;;5074455;28;20184;-85
2024/03/19 08:47:38;;;;;;;6.83;3.07;;;14.80;44.80;;;;;;5073854;28;20184;-86
2024/03/19 08:50:07;;;;;;;8.07;3.60;;;14.70;43.30;;;;;;5073837;28;20215;-85
2024/03/19 08:52:34;;;;;;;11.63;3.70;;;14.70;45.30;;;;;;5073841;28;20593;-87
2024/03/19 08:55:01;;;;;;;8.60;3.20;;;14.80;45.10;;;;;;5074139;28;20796;-88
2024/03/19 08:57:27;;;;;;;8.60;3.40;;;14.80;44.20;;;;;;5074089;28;20177;-86
2024/03/19 08:59:52;;;;;;;10.03;3.80;;;14.80;44.00;;;;;;5073896;28;20168;-87
2024/03/19 09:02:18;;;;;;;12.13;3.73;;;14.80;46.70;;;;;;5073425;28;20656;-86
2024/03/19 09:04:44;;;;;;;9.73;4.07;;;14.90;45.00;;;;;;5073695;28;20180;-89
2024/03/19 09:07:11;;;;;;;7.47;3.03;;;15.00;42.70;;;;;;5073898;28;20644;-86
2024/03/19 09:09:37;;;;;;;8.87;3.43;;;15.10;41.90;;;;;;5073680;28;20213;-87
2024/03/19 09:12:03;;;;;;;11.80;3.37;;;15.30;39.80;;;;;;5073638;28;20180;-86
2024/03/19 09:14:29;;;;;;;8.73;3.33;;;15.30;36.60;;;;;;5074858;28;20203;-84
2024/03/19 09:16:55;;;;;;;6.23;3.50;;;15.50;35.80;;;;;;5073619;28;20641;-85
2024/03/19 09:19:20;;;;;;;7.67;3.17;;;15.60;32.50;;;;;;5073243;28;20660;-87
2024/03/19 09:21:46;;;;;;;7.37;3.20;;;15.50;32.50;;;;;;5073228;28;20209;-86
2024/03/19 09:24:12;;;;;;;8.53;3.30;;;15.40;34.50;;;;;;5074007;28;20176;-86
2024/03/19 09:26:37;;;;;;;9.30;3.37;;;15.30;37.50;;;;;;5073988;28;20559;-86
2024/03/19 09:29:03;;;;;;;7.53;2.90;;;15.40;39.60;;;;;;5073512;28;20183;-84
2024/03/19 09:31:29;;;;;;;8.20;3.30;;;15.60;36.80;;;;;;5091328;28;20195;-84
2024/03/19 09:33:54;;;;;;;12.13;3.90;;;15.80;34.00;;;;;;5093391;28;20183;-84
2024/03/19 09:36:20;;;;;;;7.37;3.80;;;16.00;29.50;;;;;;5092006;28;20518;-84
2024/03/19 09:38:48;;;;;;;9.23;3.47;;;16.20;26.00;;;;;;5092105;28;20640;-84
2024/03/19 09:41:18;;;;;;;7.70;3.50;;;16.30;20.40;;;;;;5091854;28;20185;-84
2024/03/19 09:43:48;;;;;;;9.07;3.60;;;16.20;22.50;;;;;;5092140;28;20286;-85
2024/03/19 09:46:14;;;;;;;10.90;3.63;;;16.10;26.70;;;;;;5091959;28;20184;-86
2024/03/19 09:48:41;;;;;;;11.13;4.50;;;16.00;27.20;;;;;;5092773;28;20175;-86
2024/03/19 09:51:18;;;;;;;9.03;3.63;;;16.20;27.20;;;;;;5093971;28;20222;-87
2024/03/19 09:53:45;;;;;;;7.70;3.80;;;16.20;28.20;;;;;;5092495;28;20644;-86
2024/03/19 09:56:21;;;;;;;9.03;3.67;;;16.20;29.80;;;;;;5092158;28;20198;-85
2024/03/19 09:58:50;;;;;;;7.27;4.07;;;16.30;29.70;;;;;;5092212;28;20181;-86
2024/03/19 10:01:16;;;;;;;8.80;3.33;;;16.50;26.70;;;;;;5089725;28;20195;-85
2024/03/19 10:03:42;;;;;;;9.27;3.40;;;16.50;24.80;;;;;;5093318;28;20218;-87
2024/03/19 10:06:17;;;;;;;9.30;4.00;;;16.30;27.20;;;;;;5091614;28;20183;-86
2024/03/19 10:08:46;;;;;;;7.40;3.27;;;16.40;27.40;;;;;;5091470;28;20175;-87
2024/03/19 10:11:15;;;;;;;9.27;3.60;;;16.50;26.20;;;;;;5091026;28;20208;-84
2024/03/19 10:13:42;;;;;;;9.23;3.60;;;16.50;26.00;;;;;;5090876;28;20206;-86
2024/03/19 10:16:07;;;;;;;6.87;3.63;;;16.60;26.60;;;;;;5091237;28;20193;-86
2024/03/19 10:18:35;;;;;;;10.90;3.77;;;16.60;23.90;;;;;;5091276;28;20181;-85
2024/03/19 10:21:02;;;;;;;7.87;4.03;;;16.70;24.40;;;;;;5090936;28;20184;-86
2024/03/19 10:23:30;;;;;;;10.90;4.20;;;16.90;17.20;;;;;;5090929;28;20268;-85
2024/03/19 10:25:56;;;;;;;6.73;3.30;;;17.10;12.20;;;;;;5091419;28;20175;-86
2024/03/19 10:28:22;;;;;;;10.53;4.23;;;17.00;11.10;;;;;;5090988;28;20265;-85
2024/03/19 10:30:48;;;;;;;8.97;3.80;;;17.10;12.50;;;;;;5090408;28;20639;-86
2024/03/19 10:33:13;;;;;;;9.43;3.87;;;17.00;12.40;;;;;;5090808;28;20175;-85
2024/03/19 10:35:42;;;;;;;8.73;3.43;;;17.00;15.80;;;;;;5091031;28;20194;-86
2024/03/19 10:38:13;;;;;;;6.67;3.70;;;17.00;17.70;;;;;;5090547;28;20177;-87
2024/03/19 10:40:41;;;;;;;14.47;3.70;;;17.20;15.20;;;;;;5091224;28;20182;-86
2024/03/19 10:43:16;;;;;;;9.27;3.40;;;17.40;10.20;;;;;;5090583;28;20271;-86
2024/03/19 10:45:45;;;;;;;7.53;3.43;;;17.50;5.10;;;;;;5091041;28;20183;-86
2024/03/19 10:48:13;;;;;;;8.20;4.00;;;17.60;4.20;;;;;;5090656;28;20254;-85
2024/03/19 10:50:41;;;;;;;8.03;3.47;;;17.70;4.40;;;;;;5091119;28;20168;-86
2024/03/19 10:53:27;;;;;;;9.30;3.47;;;17.60;2.40;;;;;;5090254;28;20173;-86
2024/03/19 10:55:58;;;;;;;9.33;3.70;;;17.40;5.80;;;;;;5090381;28;20616;-85
2024/03/19 10:58:24;;;;;;;8.00;3.30;;;17.60;7.20;;;;;;5090247;28;20668;-85
2024/03/19 11:00:52;;;;;;;10.37;3.67;;;17.70;4.40;;;;;;5090184;28;20172;-85
2024/03/19 11:03:20;;;;;;;9.37;3.63;;;17.80;2.20;;;;;;5089791;28;20281;-85
2024/03/19 11:05:54;;;;;;;8.27;3.30;;;17.90;1.00;;;;;;5089854;28;20186;-85
2024/03/19 11:08:20;;;;;;;8.50;3.57;;;17.80;1.00;;;;;;5087454;28;20694;-85
2024/03/19 11:10:46;;;;;;;7.20;3.37;;;17.70;1.60;;;;;;5089967;28;20179;-86
2024/03/19 11:13:21;;;;;;;11.47;3.50;;;17.70;1.00;;;;;;5089884;28;20185;-85
2024/03/19 11:15:47;;;;;;;7.73;3.00;;;17.80;1.00;;;;;;5090586;28;20625;-84
2024/03/19 11:18:13;;;;;;;8.37;4.03;;;17.90;1.00;;;;;;5089899;28;20177;-85
2024/03/19 11:20:44;;;;;;;8.20;3.23;;;17.90;1.00;;;;;;5090498;28;20648;-89
2024/03/19 11:23:14;;;;;;;8.30;3.03;;;17.90;1.00;;;;;;5082550;28;20205;-85
2024/03/19 11:25:42;;;;;;;9.13;3.67;;;18.00;1.00;;;;;;5091023;28;20176;-87
2024/03/19 11:28:27;;;;;;;5.63;3.40;;;17.90;1.00;;;;;;5090703;28;20197;-86
2024/03/19 11:31:02;;;;;;;7.33;3.13;;;18.00;1.00;;;;;;5090920;28;20183;-87
2024/03/19 11:33:29;;;;;;;8.17;3.20;;;17.90;1.00;;;;;;5090661;28;20199;-86
2024/03/19 11:35:55;;;;;;;6.30;3.07;;;17.70;1.00;;;;;;5090573;28;20581;-87
2024/03/19 11:38:23;;;;;;;6.57;3.67;;;17.80;1.00;;;;;;5088725;28;20174;-86
2024/03/19 11:40:48;;;;;;;8.27;3.70;;;17.80;1.00;;;;;;5087603;28;20560;-86
2024/03/19 11:43:16;;;;;;;5.97;2.97;;;17.90;1.00;;;;;;5089901;28;20221;-88
2024/03/19 11:45:47;;;;;;;8.57;3.33;;;18.00;1.00;;;;;;5090488;28;20183;-87
2024/03/19 11:48:21;;;;;;;5.53;2.77;;;18.00;1.00;;;;;;5090083;28;20180;-84
2024/03/19 11:50:48;;;;;;;8.40;3.37;;;18.00;1.00;;;;;;5091323;28;20170;-86
2024/03/19 11:53:17;;;;;;;4.30;2.63;;;17.90;1.00;;;;;;5092774;28;20174;-85
2024/03/19 11:55:43;;;;;;;8.10;3.33;;;17.90;1.00;;;;;;5091012;28;20195;-86
2024/03/19 11:58:12;;;;;;;6.13;2.90;;;17.80;1.00;;;;;;5090170;28;20258;-86
2024/03/19 12:00:38;;;;;;;5.27;2.80;;;17.80;1.00;;;;;;5091082;28;20179;-86
2024/03/19 12:03:04;;;;;;;9.00;3.20;;;18.00;1.00;;;;;;5091105;28;20218;-87
2024/03/19 12:05:30;;;;;;;6.13;2.57;;;18.00;1.00;;;;;;5092944;28;20182;-85
2024/03/19 12:07:56;;;;;;;4.13;2.47;;;17.90;1.00;;;;;;5095091;28;20265;-85
2024/03/19 12:10:24;;;;;;;6.60;3.00;;;18.00;1.00;;;;;;5094513;28;20640;-86
2024/03/19 12:12:56;;;;;;;7.40;3.10;;;18.20;1.00;;;;;;5094855;28;20208;-86
2024/03/19 12:15:25;;;;;;;9.33;4.13;;;18.20;1.00;;;;;;5095124;28;20197;-85
2024/03/19 12:17:53;;;;;;;6.37;3.17;;;18.20;1.00;;;;;;5095152;28;20211;-85
2024/03/19 12:20:19;;;;;;;8.30;3.50;;;18.20;1.00;;;;;;5094596;28;20177;-85
2024/03/19 12:22:52;;;;;;;8.20;4.03;;;18.30;1.00;;;;;;5094577;28;20348;-85
2024/03/19 12:25:24;;;;;;;6.63;3.50;;;18.00;1.00;;;;;;5094460;28;20178;-85
2024/03/19 12:27:50;;;;;;;6.87;2.93;;;17.60;1.00;;;;;;5094198;28;20235;-85
2024/03/19 12:30:18;;;;;;;8.17;3.53;;;17.60;1.00;;;;;;5094234;28;20214;-85
2024/03/19 12:32:59;;;;;;;6.47;2.53;;;17.50;1.00;;;;;;5093530;28;20202;-85
2024/03/19 12:35:27;;;;;;;10.37;2.67;;;17.50;1.00;;;;;;5093589;28;20175;-84
2024/03/19 12:37:53;;;;;;;6.43;2.17;;;17.30;1.00;;;;;;5093940;28;20635;-85
2024/03/19 12:40:19;;;;;;;4.20;2.20;;;17.20;1.00;;;;;;5093312;28;20582;-86